createdAt,value
2019-02-07T00:02:20.242Z,34.40
2019-02-07T00:12:25.062Z,29.43
2019-02-07T00:22:29.879Z,26.00
2019-02-07T00:32:47.877Z,26.60
2019-02-07T00:42:52.972Z,27.60
2019-02-07T00:52:57.813Z,30.00
2019-02-07T01:03:03.249Z,31.63
2019-02-07T01:13:09.554Z,29.53
2019-02-07T01:23:14.485Z,29.10
2019-02-07T01:33:19.389Z,28.13
2019-02-07T01:43:25.552Z,28.23
2019-02-07T01:53:31.115Z,29.80
2019-02-07T02:03:36.004Z,28.33
2019-02-07T02:13:40.938Z,26.83
2019-02-07T02:23:45.825Z,30.20
2019-02-07T02:33:50.763Z,29.97
2019-02-07T02:43:55.725Z,29.83
2019-02-07T02:54:01.886Z,27.13
2019-02-07T03:04:11.633Z,27.63
2019-02-07T03:14:18.156Z,26.20
2019-02-07T03:24:36.764Z,29.60
2019-02-07T03:34:43.253Z,31.73
2019-02-07T03:45:04.582Z,35.10
2019-02-07T03:55:11.050Z,35.07
2019-02-07T04:05:20.605Z,28.90
2019-02-07T04:15:27.085Z,28.87
2019-02-07T04:25:36.231Z,28.20
2019-02-07T04:35:59.422Z,28.63
2019-02-07T04:46:14.055Z,28.53
2019-02-07T04:56:26.331Z,29.30
2019-02-07T05:06:49.054Z,27.17
2019-02-07T05:17:07.954Z,27.63
2019-02-07T05:27:14.425Z,26.17
2019-02-07T05:47:52.509Z,26.40
2019-02-07T05:58:04.628Z,27.30
2019-02-07T06:08:11.246Z,29.73
2019-02-07T06:18:32.728Z,30.10
2019-02-07T06:28:47.873Z,30.47
2019-02-07T06:38:57.008Z,27.73
2019-02-07T06:49:46.052Z,27.90
2019-02-07T07:00:01.037Z,32.30
2019-02-07T07:10:18.803Z,31.83
2019-02-07T07:20:37.235Z,30.83
2019-02-07T07:30:59.968Z,32.63
2019-02-07T07:41:08.342Z,32.27
2019-02-07T07:51:20.701Z,29.53
2019-02-07T08:01:45.371Z,30.90
2019-02-07T08:12:06.597Z,29.77
2019-02-07T08:22:25.024Z,28.33
2019-02-07T08:32:40.183Z,26.87
2019-02-07T08:42:56.885Z,26.70
2019-02-07T08:53:06.522Z,25.67
2019-02-07T09:03:14.031Z,27.07
2019-02-07T09:13:43.553Z,24.63
2019-02-07T09:24:06.356Z,23.90
2019-02-07T09:34:12.649Z,23.93
2019-02-07T09:44:28.263Z,20.80
2019-02-07T09:54:34.572Z,23.53
2019-02-07T10:04:40.901Z,22.27
2019-02-07T10:14:53.221Z,23.77
2019-02-07T10:25:11.840Z,23.20
2019-02-07T10:35:45.618Z,23.50
2019-02-07T10:45:51.918Z,23.90
2019-02-07T10:56:07.595Z,21.40
2019-02-07T11:06:26.098Z,25.90
2019-02-07T11:16:48.143Z,18.25
2019-02-07T11:26:54.527Z,19.27
2019-02-07T11:37:12.872Z,18.83
2019-02-07T11:47:25.599Z,18.53
2019-02-07T11:57:45.040Z,18.47
2019-02-07T12:08:00.627Z,17.10
2019-02-07T12:18:09.635Z,22.63
2019-02-07T12:28:36.071Z,17.77
2019-02-07T12:48:57.266Z,22.00
2019-02-07T12:59:09.376Z,34.50
2019-02-07T13:09:28.173Z,34.07
2019-02-07T13:19:40.851Z,26.93
2019-02-07T13:29:50.883Z,24.43
2019-02-07T13:40:01.491Z,26.30
2019-02-07T13:50:12.457Z,27.80
2019-02-07T14:00:26.250Z,35.20
2019-02-07T14:10:35.797Z,53.43
2019-02-07T14:20:58.766Z,45.97
2019-02-07T14:31:14.597Z,31.90
2019-02-07T14:41:26.960Z,30.60
2019-02-07T14:51:38.226Z,27.97
2019-02-07T15:01:43.157Z,27.13
2019-02-07T15:11:47.892Z,24.97
2019-02-07T15:21:52.812Z,24.73
2019-02-07T15:32:00.587Z,27.17
2019-02-07T15:42:05.673Z,29.43
2019-02-07T15:52:10.422Z,27.63
2019-02-07T16:02:15.993Z,29.83
2019-02-07T16:12:20.752Z,34.07
2019-02-07T16:33:12.462Z,32.87
2019-02-07T16:43:17.235Z,30.17
2019-02-07T16:53:23.140Z,30.63
2019-02-07T17:03:27.990Z,26.90
2019-02-07T17:13:35.001Z,26.53
2019-02-07T17:23:41.168Z,25.97
2019-02-07T17:33:48.952Z,23.73
2019-02-07T17:43:53.917Z,24.70
2019-02-07T17:53:58.802Z,26.03
2019-02-07T18:04:03.507Z,26.83
2019-02-07T18:14:08.273Z,30.23
2019-02-07T18:24:13.159Z,29.17
2019-02-07T18:34:17.917Z,29.40
2019-02-07T18:44:22.679Z,28.40
2019-02-07T18:54:27.425Z,26.00
2019-02-07T19:15:26.008Z,26.53
2019-02-07T19:25:31.606Z,25.90
2019-02-07T19:35:37.297Z,25.50
2019-02-07T19:45:44.137Z,27.63
2019-02-07T19:55:50.192Z,25.37
2019-02-07T20:06:07.408Z,27.23
2019-02-07T20:16:12.703Z,25.83
2019-02-07T20:26:18.811Z,25.90
2019-02-07T20:36:24.626Z,23.60
2019-02-07T20:46:30.928Z,25.27
2019-02-07T20:56:36.634Z,26.70
2019-02-07T21:06:42.737Z,28.90
2019-02-07T21:16:48.553Z,26.77
2019-02-07T21:26:54.132Z,25.23
2019-02-07T21:36:59.625Z,28.07
2019-02-07T21:47:05.027Z,24.77
2019-02-07T21:57:10.726Z,27.20
2019-02-07T22:07:16.233Z,26.47
2019-02-07T22:17:22.232Z,28.77
2019-02-07T22:27:27.726Z,28.40
2019-02-07T22:37:33.214Z,30.13
2019-02-07T22:47:38.614Z,27.43
2019-02-07T22:57:44.217Z,27.87
2019-02-07T23:07:59.394Z,31.57
2019-02-07T23:18:06.913Z,32.67
2019-02-07T23:28:12.415Z,34.17
2019-02-07T23:38:17.862Z,34.63
2019-02-07T23:48:23.271Z,31.83
2019-02-07T23:58:28.652Z,29.60
